createdAt,value
2019-03-22T08:51:41.495Z,28.31
2019-03-22T08:51:52.477Z,26.72
2019-03-22T08:51:57.669Z,26.22
2019-03-22T08:52:02.910Z,25.92
2019-03-22T08:52:15.003Z,27.42
2019-03-22T08:52:25.140Z,27.12
2019-03-22T08:52:47.537Z,26.12
2019-03-22T08:52:53.779Z,27.42
2019-03-22T08:52:59.009Z,27.12
2019-03-22T08:53:04.258Z,26.42
2019-03-22T08:53:09.535Z,26.02
2019-03-22T08:53:14.866Z,25.82
2019-03-22T08:53:20.089Z,25.62
2019-03-22T08:53:25.322Z,25.42
2019-03-22T08:53:30.572Z,25.72
2019-03-22T08:53:35.810Z,25.72
2019-03-22T08:53:54.378Z,25.52
2019-03-22T08:53:55.612Z,25.42
2019-03-22T08:54:01.062Z,25.32
2019-03-22T08:54:06.368Z,25.32
2019-03-22T08:54:12.270Z,25.32
2019-03-22T08:54:17.489Z,25.42
2019-03-22T08:54:22.764Z,26.12
2019-03-22T08:54:28.025Z,29.51
2019-03-22T08:54:33.276Z,29.01
2019-03-22T08:54:38.588Z,27.81
2019-03-22T08:54:43.802Z,27.02
2019-03-22T08:54:49.004Z,26.92
2019-03-22T08:54:54.251Z,27.02
2019-03-22T08:54:59.497Z,27.12
2019-03-22T08:55:04.738Z,27.12
2019-03-22T08:55:09.944Z,27.02
2019-03-22T08:55:15.254Z,27.02
2019-03-22T08:55:20.498Z,26.82
2019-03-22T08:55:25.714Z,26.22
2019-03-22T08:55:30.932Z,26.62
2019-03-22T08:55:36.139Z,26.52
2019-03-22T08:55:41.331Z,26.32
2019-03-22T08:55:46.515Z,26.22
2019-03-22T08:55:51.723Z,26.32
2019-03-22T08:55:56.928Z,26.02
2019-03-22T08:56:02.160Z,25.82
2019-03-22T08:56:07.372Z,25.62
2019-03-22T08:56:12.560Z,25.52
2019-03-22T08:56:17.747Z,25.82
2019-03-22T08:56:22.989Z,25.92
2019-03-22T08:56:28.235Z,26.12
2019-03-22T08:56:35.929Z,28.81
2019-03-22T08:56:41.504Z,28.41
2019-03-22T08:56:46.795Z,27.72
2019-03-22T08:56:52.002Z,28.52
2019-03-22T08:56:57.283Z,27.62
2019-03-22T08:57:02.511Z,28.41
2019-03-22T08:57:07.767Z,28.41
2019-03-22T08:57:13.048Z,27.22
2019-03-22T08:57:18.280Z,28.22
2019-03-22T08:57:25.003Z,27.62
2019-03-22T08:57:32.197Z,26.32
2019-03-22T08:57:37.493Z,25.62
2019-03-22T08:57:42.696Z,25.92
2019-03-22T08:57:47.917Z,29.31
2019-03-22T08:57:53.145Z,29.21
2019-03-22T08:57:58.374Z,27.72
2019-03-22T08:58:03.590Z,26.52
2019-03-22T08:58:08.929Z,26.12
2019-03-22T08:58:14.287Z,26.32
2019-03-22T08:58:19.593Z,26.92
2019-03-22T08:58:24.833Z,27.51
2019-03-22T08:58:30.711Z,29.01
2019-03-22T08:58:35.988Z,29.11
2019-03-22T08:58:41.875Z,28.31
2019-03-22T08:58:47.199Z,27.51
2019-03-22T08:58:52.402Z,27.12
2019-03-22T08:58:57.607Z,26.72
2019-03-22T08:59:02.865Z,26.42
2019-03-22T08:59:08.206Z,26.72
2019-03-22T08:59:13.606Z,26.51
2019-03-22T08:59:19.725Z,26.22
2019-03-22T08:59:25.045Z,25.92
2019-03-22T08:59:30.425Z,25.72
2019-03-22T08:59:35.651Z,27.51
2019-03-22T08:59:40.859Z,28.10
2019-03-22T08:59:46.101Z,27.42
2019-03-22T08:59:51.397Z,26.70
2019-03-22T08:59:56.670Z,26.12
2019-03-22T09:00:01.879Z,28.30
2019-03-22T09:00:07.251Z,29.30
2019-03-22T09:00:12.456Z,31.89
2019-03-22T09:00:18.288Z,30.69
2019-03-22T09:00:23.484Z,28.90
2019-03-22T09:00:38.733Z,28.10
2019-03-22T09:00:40.114Z,26.61
2019-03-22T09:00:56.843Z,27.90
2019-03-22T09:00:58.019Z,26.40
2019-03-22T09:01:03.552Z,25.91
2019-03-22T09:01:09.749Z,25.61
2019-03-22T09:01:14.987Z,25.61
2019-03-22T09:01:20.229Z,27.40
2019-03-22T09:01:25.439Z,27.70
2019-03-22T09:01:30.665Z,26.70
2019-03-22T09:01:35.866Z,26.21
2019-03-22T09:01:41.065Z,26.10
2019-03-22T09:01:46.298Z,26.21
2019-03-22T09:01:51.562Z,27.40
2019-03-22T09:01:56.776Z,28.30
2019-03-22T09:02:01.987Z,28.10
2019-03-22T09:02:08.434Z,27.70
2019-03-22T09:02:13.728Z,27.90
2019-03-22T09:02:18.940Z,27.30
2019-03-22T09:02:24.158Z,26.70
2019-03-22T09:02:29.348Z,26.31
2019-03-22T09:02:34.553Z,26.10
2019-03-22T09:02:39.757Z,26.01
2019-03-22T09:02:44.951Z,25.81
2019-03-22T09:02:50.214Z,25.71
2019-03-22T09:02:55.417Z,25.61
2019-03-22T09:03:00.651Z,25.61
2019-03-22T09:03:05.883Z,25.61
2019-03-22T09:03:11.763Z,25.51
2019-03-22T09:03:17.003Z,25.51
2019-03-22T09:03:22.301Z,25.51
2019-03-22T09:03:27.530Z,25.51
2019-03-22T09:03:32.743Z,25.51
2019-03-22T09:03:37.962Z,25.51
2019-03-22T09:03:43.178Z,25.61
2019-03-22T09:03:48.479Z,25.61
2019-03-22T09:03:53.742Z,25.61
2019-03-22T09:03:59.005Z,25.51
2019-03-22T09:04:05.246Z,25.51
2019-03-22T09:04:10.426Z,25.41
2019-03-22T09:04:15.671Z,25.31
2019-03-22T09:04:20.950Z,25.31
2019-03-22T09:04:26.142Z,25.21
2019-03-22T09:04:31.363Z,25.21
2019-03-22T09:04:36.554Z,25.21
2019-03-22T09:04:41.755Z,25.21
2019-03-22T09:04:47.040Z,25.21
2019-03-22T09:04:52.258Z,25.21
2019-03-22T09:04:57.457Z,25.21
2019-03-22T09:05:02.647Z,25.21
2019-03-22T09:05:07.829Z,25.21
2019-03-22T09:05:13.035Z,25.21
2019-03-22T09:05:18.212Z,25.21
2019-03-22T09:05:23.392Z,25.21
2019-03-22T09:05:28.581Z,25.21
2019-03-22T09:05:33.779Z,25.41
2019-03-22T09:05:38.979Z,25.91
2019-03-22T09:05:44.203Z,26.21
2019-03-22T09:05:49.418Z,26.10
2019-03-22T09:05:54.618Z,25.91
2019-03-22T09:05:59.910Z,25.61
2019-03-22T09:06:07.750Z,25.41
2019-03-22T09:06:13.197Z,25.31
2019-03-22T09:06:18.407Z,25.31
2019-03-22T09:06:23.590Z,25.21
2019-03-22T09:06:28.814Z,25.11
2019-03-22T09:06:34.031Z,25.11
2019-03-22T09:06:39.225Z,25.01
2019-03-22T09:06:44.441Z,25.11
2019-03-22T09:06:49.633Z,25.11
2019-03-22T09:06:54.923Z,25.11
2019-03-22T09:07:00.137Z,25.11
2019-03-22T09:07:05.334Z,25.11
2019-03-22T09:07:10.558Z,25.21
2019-03-22T09:07:16.729Z,25.31
2019-03-22T09:07:24.336Z,25.31
2019-03-22T09:07:29.818Z,25.21
2019-03-22T09:07:35.008Z,25.31
2019-03-22T09:07:40.287Z,25.31
2019-03-22T09:07:45.493Z,25.21
2019-03-22T09:07:50.708Z,27.20
2019-03-22T09:07:55.897Z,26.90
2019-03-22T09:08:01.078Z,26.21
2019-03-22T09:08:06.373Z,25.61
2019-03-22T09:08:11.603Z,25.41
2019-03-22T09:08:16.786Z,25.31
2019-03-22T09:08:21.970Z,25.31
2019-03-22T09:08:27.163Z,25.31
2019-03-22T09:08:32.380Z,25.21
2019-03-22T09:08:37.574Z,25.31
2019-03-22T09:08:42.815Z,25.31
2019-03-22T09:08:48.127Z,25.31
2019-03-22T09:08:53.355Z,25.31
2019-03-22T09:08:58.567Z,25.31
2019-03-22T09:09:09.237Z,25.31
2019-03-22T09:09:14.426Z,25.31
2019-03-22T09:09:19.621Z,25.21
2019-03-22T09:09:24.997Z,25.11
2019-03-22T09:09:40.962Z,25.21
2019-03-22T09:09:42.040Z,25.21
2019-03-22T09:09:47.275Z,25.21
2019-03-22T09:09:52.499Z,25.11
2019-03-22T09:09:57.743Z,25.01
2019-03-22T09:10:02.994Z,25.01
2019-03-22T09:10:08.272Z,25.01
2019-03-22T09:10:13.464Z,25.21
2019-03-22T09:10:18.744Z,25.41
2019-03-22T09:10:24.003Z,25.41
2019-03-22T09:10:29.250Z,25.41
2019-03-22T09:10:34.465Z,27.50
2019-03-22T09:10:39.674Z,27.30
2019-03-22T09:10:44.852Z,26.40
2019-03-22T09:10:50.055Z,26.10
2019-03-22T09:10:55.246Z,26.81
2019-03-22T09:11:00.494Z,27.11
2019-03-22T09:11:05.682Z,31.39
2019-03-22T09:11:10.875Z,33.28
2019-03-22T09:11:18.177Z,31.89
2019-03-22T09:11:23.528Z,30.40
2019-03-22T09:11:28.724Z,29.90
2019-03-22T09:11:33.910Z,28.10
2019-03-22T09:11:39.103Z,27.90
2019-03-22T09:11:44.409Z,27.50
2019-03-22T09:11:49.605Z,27.80
2019-03-22T09:11:54.817Z,29.00
2019-03-22T09:12:00.049Z,27.90
2019-03-22T09:12:05.244Z,26.51
2019-03-22T09:12:12.271Z,25.81
2019-03-22T09:12:17.448Z,25.41
2019-03-22T09:12:22.681Z,25.31
2019-03-22T09:12:27.876Z,25.21
2019-03-22T09:12:33.099Z,25.42
2019-03-22T09:12:38.327Z,25.42
2019-03-22T09:12:43.515Z,25.82
2019-03-22T09:12:48.737Z,25.52
2019-03-22T09:12:53.921Z,26.02
2019-03-22T09:12:59.147Z,26.82
2019-03-22T09:13:04.355Z,26.72
2019-03-22T09:13:09.545Z,26.42
2019-03-22T09:13:14.810Z,26.32
2019-03-22T09:13:20.073Z,26.32
2019-03-22T09:13:25.341Z,26.02
2019-03-22T09:13:30.543Z,25.82
2019-03-22T09:13:35.729Z,25.63
2019-03-22T09:13:40.963Z,25.43
2019-03-22T09:13:46.753Z,25.54
2019-03-22T09:13:53.724Z,25.43
2019-03-22T09:13:59.290Z,25.63
2019-03-22T09:14:04.537Z,25.63
2019-03-22T09:14:09.784Z,25.43
2019-03-22T09:14:15.018Z,25.54
2019-03-22T09:14:20.226Z,25.54
2019-03-22T09:14:25.429Z,25.43
2019-03-22T09:14:30.620Z,25.43
2019-03-22T09:14:35.810Z,25.43
2019-03-22T09:14:40.996Z,26.03
2019-03-22T09:14:46.254Z,26.03
2019-03-22T09:14:51.504Z,25.93
2019-03-22T09:14:56.717Z,25.73
2019-03-22T09:15:01.923Z,25.73
2019-03-22T09:15:07.146Z,25.93
2019-03-22T09:15:12.370Z,25.73
2019-03-22T09:15:17.592Z,25.63
2019-03-22T09:15:22.782Z,25.54
2019-03-22T09:15:40.264Z,25.43
2019-03-22T09:15:42.281Z,25.54
2019-03-22T09:15:47.486Z,25.54
2019-03-22T09:15:52.720Z,25.55
2019-03-22T09:15:57.907Z,25.45
2019-03-22T09:16:03.088Z,25.55
2019-03-22T09:16:08.274Z,25.55
2019-03-22T09:16:13.461Z,25.55
2019-03-22T09:16:18.641Z,25.54
2019-03-22T09:16:23.883Z,25.65
2019-03-22T09:16:30.787Z,25.65
2019-03-22T09:16:36.212Z,25.55
2019-03-22T09:16:41.420Z,25.55
2019-03-22T09:16:46.610Z,25.74
2019-03-22T09:16:51.816Z,26.15
2019-03-22T09:16:57.029Z,25.95
2019-03-22T09:17:02.305Z,25.95
2019-03-22T09:17:07.551Z,25.95
2019-03-22T09:17:12.817Z,25.85
2019-03-22T09:17:18.027Z,25.65
2019-03-22T09:17:23.260Z,25.65
2019-03-22T09:17:28.461Z,25.55
2019-03-22T09:17:33.759Z,25.65
2019-03-22T09:17:38.968Z,25.55
2019-03-22T09:17:44.155Z,25.65
2019-03-22T09:17:49.366Z,25.55
2019-03-22T09:17:54.653Z,25.55
2019-03-22T09:17:59.968Z,25.45
2019-03-22T09:18:05.261Z,25.35
2019-03-22T09:18:10.495Z,25.45
2019-03-22T09:18:15.895Z,25.45
2019-03-22T09:18:21.172Z,25.55
2019-03-22T09:18:26.384Z,25.55
2019-03-22T09:18:31.593Z,25.45
2019-03-22T09:18:36.861Z,25.45
2019-03-22T09:18:42.075Z,25.45
2019-03-22T09:18:47.276Z,25.55
2019-03-22T09:18:52.477Z,25.55
2019-03-22T09:18:57.688Z,25.55
2019-03-22T09:19:02.899Z,25.65
2019-03-22T09:19:08.129Z,25.65
2019-03-22T09:19:13.396Z,25.65
2019-03-22T09:19:18.593Z,25.65
2019-03-22T09:19:23.810Z,25.65
2019-03-22T09:19:29.799Z,25.55
2019-03-22T09:19:35.032Z,25.65
2019-03-22T09:19:41.232Z,26.54
2019-03-22T09:19:46.453Z,26.45
2019-03-22T09:19:51.710Z,26.15
2019-03-22T09:19:56.919Z,25.95
2019-03-22T09:20:02.187Z,25.85
2019-03-22T09:20:07.470Z,25.74
2019-03-22T09:20:13.255Z,25.74
2019-03-22T09:20:18.437Z,25.74
2019-03-22T09:20:23.711Z,25.74
2019-03-22T09:20:33.814Z,25.65
2019-03-22T09:20:39.036Z,25.65
2019-03-22T09:20:44.290Z,25.65
2019-03-22T09:20:49.539Z,25.65
2019-03-22T09:20:54.757Z,25.65
2019-03-22T09:20:59.983Z,25.65
2019-03-22T09:21:05.181Z,25.74
2019-03-22T09:21:10.424Z,25.74
2019-03-22T09:21:15.681Z,25.74
2019-03-22T09:21:20.905Z,25.74
2019-03-22T09:21:26.134Z,25.85
2019-03-22T09:21:31.367Z,25.95
2019-03-22T09:21:36.643Z,25.85
2019-03-22T09:21:41.858Z,25.74
2019-03-22T09:21:47.091Z,25.74
2019-03-22T09:21:52.305Z,25.74
2019-03-22T09:21:59.665Z,25.74
2019-03-22T09:22:05.006Z,25.65
2019-03-22T09:22:10.248Z,25.65
2019-03-22T09:22:15.509Z,25.65
2019-03-22T09:22:20.770Z,25.74
2019-03-22T09:22:25.968Z,25.65
2019-03-22T09:22:31.172Z,25.65
2019-03-22T09:22:36.368Z,25.65
2019-03-22T09:22:41.614Z,25.55
2019-03-22T09:22:46.814Z,25.55
2019-03-22T09:22:52.019Z,25.55
2019-03-22T09:22:57.210Z,25.55
2019-03-22T09:23:02.415Z,25.55
2019-03-22T09:23:07.742Z,25.55
2019-03-22T09:23:12.932Z,25.55
2019-03-22T09:23:18.144Z,25.55
2019-03-22T09:23:23.350Z,25.55
2019-03-22T09:23:28.547Z,25.55
2019-03-22T09:23:33.733Z,25.55
2019-03-22T09:23:38.934Z,25.55
2019-03-22T09:23:44.127Z,25.65
2019-03-22T09:23:49.351Z,25.74
2019-03-22T09:23:54.710Z,25.74
2019-03-22T09:23:59.919Z,25.65
2019-03-22T09:24:05.096Z,25.55
2019-03-22T09:24:10.372Z,25.35
2019-03-22T09:24:15.599Z,25.45
2019-03-22T09:24:20.792Z,25.45
2019-03-22T09:24:38.327Z,25.45
2019-03-22T09:24:39.259Z,25.55
2019-03-22T09:24:44.877Z,26.15
2019-03-22T09:24:50.065Z,26.34
2019-03-22T09:24:55.271Z,26.15
2019-03-22T09:25:00.599Z,25.85
2019-03-22T09:25:05.787Z,25.65
2019-03-22T09:25:10.978Z,25.55
2019-03-22T09:25:16.176Z,25.55
2019-03-22T09:25:21.392Z,25.55
2019-03-22T09:25:26.635Z,25.55
2019-03-22T09:25:31.837Z,25.55
2019-03-22T09:25:37.065Z,25.45
2019-03-22T09:25:42.250Z,25.45
2019-03-22T09:25:48.266Z,25.35
2019-03-22T09:25:53.468Z,25.24
2019-03-22T09:25:58.759Z,25.35
2019-03-22T09:26:03.991Z,25.35
2019-03-22T09:26:09.741Z,25.45
2019-03-22T09:26:14.944Z,25.45
2019-03-22T09:26:20.216Z,25.45
2019-03-22T09:26:25.412Z,25.45
2019-03-22T09:26:31.351Z,25.45
2019-03-22T09:26:47.039Z,25.45
2019-03-22T09:26:48.182Z,25.55
2019-03-22T09:26:53.468Z,25.65
2019-03-22T09:26:58.710Z,25.55
2019-03-22T09:27:03.951Z,25.55
2019-03-22T09:27:09.172Z,25.45
2019-03-22T09:27:14.447Z,25.45
2019-03-22T09:27:19.666Z,25.45
2019-03-22T09:27:24.859Z,25.45
2019-03-22T09:27:30.076Z,25.45
2019-03-22T09:27:36.563Z,25.35
2019-03-22T09:27:42.061Z,25.24
2019-03-22T09:27:47.284Z,25.35
2019-03-22T09:27:52.499Z,25.35
2019-03-22T09:27:57.776Z,25.45
2019-03-22T09:28:02.979Z,25.45
2019-03-22T09:28:10.399Z,25.35
2019-03-22T09:28:15.768Z,25.24
2019-03-22T09:28:21.046Z,25.24
2019-03-22T09:28:26.246Z,25.15
2019-03-22T09:28:31.496Z,25.15
2019-03-22T09:28:36.689Z,25.15
2019-03-22T09:28:41.912Z,25.15
2019-03-22T09:28:47.144Z,25.05
2019-03-22T09:28:52.386Z,25.15
2019-03-22T09:28:57.575Z,25.24
2019-03-22T09:29:02.803Z,25.24
2019-03-22T09:29:07.986Z,25.24
2019-03-22T09:29:13.209Z,25.24
2019-03-22T09:29:18.448Z,25.24
2019-03-22T09:29:23.652Z,25.15
2019-03-22T09:29:28.837Z,24.95
2019-03-22T09:29:34.063Z,25.05
2019-03-22T09:29:39.310Z,25.15
2019-03-22T09:29:47.317Z,25.24
2019-03-22T09:29:52.724Z,25.35
2019-03-22T09:29:57.981Z,25.45
2019-03-22T09:30:03.220Z,25.45
2019-03-22T09:30:13.327Z,25.35
2019-03-22T09:30:18.520Z,25.35
2019-03-22T09:30:23.729Z,25.24
2019-03-22T09:30:28.919Z,25.24
2019-03-22T09:30:34.106Z,25.35
2019-03-22T09:30:40.378Z,25.45
2019-03-22T09:30:45.578Z,25.24
2019-03-22T09:30:50.786Z,25.45
2019-03-22T09:30:56.005Z,25.35
2019-03-22T09:31:10.339Z,25.35
2019-03-22T09:31:12.616Z,25.55
2019-03-22T09:31:17.936Z,25.55
2019-03-22T09:31:23.121Z,25.65
2019-03-22T09:31:28.336Z,25.55
2019-03-22T09:31:33.548Z,25.55
2019-03-22T09:31:38.758Z,26.04
2019-03-22T09:31:43.948Z,26.15
2019-03-22T09:31:49.190Z,25.85
2019-03-22T09:31:54.396Z,25.65
2019-03-22T09:31:59.587Z,25.55
2019-03-22T09:32:04.826Z,25.45
2019-03-22T09:32:10.021Z,25.45
2019-03-22T09:32:15.264Z,25.45
2019-03-22T09:32:20.472Z,25.45
2019-03-22T09:32:25.684Z,25.55
2019-03-22T09:32:30.876Z,25.55
2019-03-22T09:32:36.098Z,25.45
2019-03-22T09:32:42.278Z,25.45
2019-03-22T09:32:47.542Z,25.45
2019-03-22T09:32:52.770Z,25.45
2019-03-22T09:32:58.022Z,25.55
2019-03-22T09:33:03.223Z,25.65
2019-03-22T09:33:08.453Z,25.55
2019-03-22T09:33:13.681Z,25.45
2019-03-22T09:33:18.891Z,25.35
2019-03-22T09:33:24.076Z,25.24
2019-03-22T09:33:29.286Z,25.24
2019-03-22T09:33:34.529Z,25.15
2019-03-22T09:33:39.787Z,25.24
2019-03-22T09:33:44.991Z,25.24
2019-03-22T09:33:50.189Z,25.24
2019-03-22T09:33:55.416Z,25.24
2019-03-22T09:34:00.732Z,25.24
2019-03-22T09:34:05.969Z,25.24
2019-03-22T09:34:11.176Z,25.35
2019-03-22T09:34:16.378Z,25.35
2019-03-22T09:34:33.127Z,25.35
2019-03-22T09:34:33.893Z,25.55
2019-03-22T09:34:39.431Z,25.55
2019-03-22T09:34:44.656Z,25.45
2019-03-22T09:34:49.893Z,25.35
2019-03-22T09:34:55.087Z,25.35
2019-03-22T09:35:00.411Z,25.35
2019-03-22T10:15:38.670Z,24.02
2019-03-22T10:15:43.917Z,24.13
2019-03-22T10:15:49.149Z,24.22
2019-03-22T10:32:34.332Z,24.01
2019-03-22T10:32:39.571Z,24.20
2019-03-22T10:32:44.793Z,24.10
